createdAt,value
2022-08-25T00:02:23.000Z,4.10
2022-08-25T00:12:23.000Z,3.90
2022-08-25T00:32:23.000Z,4.30
2022-08-25T00:42:23.000Z,3.20
2022-08-25T00:52:22.000Z,4.30
2022-08-25T01:02:22.000Z,4.00
2022-08-25T01:12:22.000Z,4.60
2022-08-25T01:22:22.000Z,4.90
2022-08-25T01:32:22.000Z,5.00
2022-08-25T01:42:22.000Z,5.10
2022-08-25T02:02:21.000Z,3.20
2022-08-25T02:12:21.000Z,6.30
2022-08-25T02:22:21.000Z,5.20
2022-08-25T02:32:21.000Z,5.60
2022-08-25T02:42:21.000Z,3.60
2022-08-25T02:52:21.000Z,5.80
2022-08-25T03:02:21.000Z,4.30
2022-08-25T03:12:20.000Z,5.40
2022-08-25T03:32:20.000Z,6.60
2022-08-25T03:42:20.000Z,6.20
2022-08-25T03:52:20.000Z,6.70
2022-08-25T04:02:20.000Z,5.50
2022-08-25T04:12:20.000Z,6.30
2022-08-25T04:22:20.000Z,5.20
2022-08-25T04:32:19.000Z,6.70
2022-08-25T04:42:19.000Z,5.90
2022-08-25T05:02:19.000Z,8.00
2022-08-25T05:12:19.000Z,5.10
2022-08-25T05:22:19.000Z,7.10
2022-08-25T05:32:19.000Z,6.30
2022-08-25T05:42:18.000Z,5.80
2022-08-25T05:52:18.000Z,4.70
2022-08-25T06:02:18.000Z,7.00
2022-08-25T06:12:18.000Z,5.60
2022-08-25T06:32:18.000Z,6.50
2022-08-25T06:42:18.000Z,7.10
2022-08-25T06:52:17.000Z,8.50
2022-08-25T07:02:17.000Z,6.10
2022-08-25T07:12:17.000Z,6.70
2022-08-25T07:22:17.000Z,6.10
2022-08-25T07:32:17.000Z,7.10
2022-08-25T07:42:17.000Z,4.60
2022-08-25T08:02:17.000Z,5.50
2022-08-25T08:12:16.000Z,4.70
2022-08-25T08:22:16.000Z,3.80
2022-08-25T08:22:16.000Z,3.80
2022-08-25T08:32:16.000Z,4.30
2022-08-25T08:42:16.000Z,4.70
2022-08-25T08:52:16.000Z,5.10
2022-08-25T08:52:16.000Z,5.10
2022-08-25T09:02:16.000Z,5.80
2022-08-25T09:12:16.000Z,3.20
2022-08-25T09:12:16.000Z,3.20
2022-08-25T09:32:15.000Z,3.90
2022-08-25T09:42:15.000Z,4.60
2022-08-25T09:52:15.000Z,6.20
2022-08-25T10:02:15.000Z,5.40
2022-08-25T10:12:15.000Z,4.20
2022-08-25T10:22:15.000Z,4.10
2022-08-25T10:32:14.000Z,3.80
2022-08-25T10:42:14.000Z,5.60
2022-08-25T11:02:14.000Z,3.40
2022-08-25T11:12:14.000Z,3.90
2022-08-25T11:22:14.000Z,4.70
2022-08-25T11:32:14.000Z,2.90
2022-08-25T11:42:14.000Z,3.00
2022-08-25T11:52:13.000Z,3.50
2022-08-25T12:02:13.000Z,3.30
2022-08-25T12:12:13.000Z,3.30
2022-08-25T12:32:13.000Z,3.70
2022-08-25T12:42:13.000Z,1.80
2022-08-25T12:42:13.000Z,1.80
2022-08-25T12:52:13.000Z,3.00
2022-08-25T13:02:12.000Z,3.50
2022-08-25T13:12:12.000Z,2.90
2022-08-25T13:22:12.000Z,3.10
2022-08-25T13:32:12.000Z,2.60
2022-08-25T13:32:12.000Z,2.60
2022-08-25T13:42:12.000Z,2.80
2022-08-25T14:02:12.000Z,3.00
2022-08-25T14:02:12.000Z,3.00
2022-08-25T14:02:12.000Z,3.00
2022-08-25T14:12:12.000Z,2.50
2022-08-25T14:22:11.000Z,2.40
2022-08-25T14:32:11.000Z,2.50
2022-08-25T14:42:11.000Z,3.00
2022-08-25T14:52:11.000Z,2.50
2022-08-25T15:02:11.000Z,2.60
2022-08-25T15:02:11.000Z,2.60
2022-08-25T15:12:11.000Z,3.30
2022-08-25T15:32:10.000Z,3.10
2022-08-25T15:42:10.000Z,2.90
2022-08-25T15:52:10.000Z,3.10
2022-08-25T16:02:10.000Z,3.70
2022-08-25T16:12:10.000Z,3.30
2022-08-25T16:22:10.000Z,3.10
2022-08-25T16:32:09.000Z,3.30
2022-08-25T16:42:09.000Z,3.40
2022-08-25T17:02:09.000Z,3.60
2022-08-25T17:12:09.000Z,4.00
2022-08-25T17:22:09.000Z,4.20
2022-08-25T17:32:09.000Z,2.80
2022-08-25T17:42:08.000Z,3.10
2022-08-25T17:52:08.000Z,4.40
2022-08-25T18:02:08.000Z,3.50
2022-08-25T18:12:08.000Z,4.00
2022-08-25T18:32:08.000Z,3.80
2022-08-25T18:42:08.000Z,3.30
2022-08-25T18:52:08.000Z,3.70
2022-08-25T19:02:07.000Z,4.20
2022-08-25T19:02:07.000Z,4.20
2022-08-25T19:12:07.000Z,3.10
2022-08-25T19:12:07.000Z,3.10
2022-08-25T19:22:07.000Z,3.90
2022-08-25T19:32:07.000Z,4.30
2022-08-25T19:32:07.000Z,4.30
2022-08-25T19:42:07.000Z,4.10
2022-08-25T20:02:07.000Z,4.30
2022-08-25T20:02:07.000Z,4.30
2022-08-25T20:12:06.000Z,4.30
2022-08-25T20:32:25.000Z,3.40
2022-08-25T20:32:25.000Z,2.50
2022-08-25T20:42:25.000Z,3.30
2022-08-25T20:52:25.000Z,2.80
2022-08-25T21:02:25.000Z,3.10
2022-08-25T21:12:24.000Z,2.70
2022-08-25T21:22:24.000Z,3.70
2022-08-25T21:32:24.000Z,3.00
2022-08-25T21:42:23.000Z,3.30
2022-08-25T22:02:23.000Z,3.30
2022-08-25T22:12:23.000Z,3.40
2022-08-25T22:22:23.000Z,2.60
2022-08-25T22:32:23.000Z,2.80
2022-08-25T22:42:22.000Z,2.30
2022-08-25T22:52:22.000Z,3.90
2022-08-25T23:02:22.000Z,3.50
2022-08-25T23:12:22.000Z,5.10
2022-08-25T23:32:22.000Z,4.00
2022-08-25T23:42:22.000Z,3.80
2022-08-25T23:52:21.000Z,3.20
